AirNav   TITAN Aviation Fuels
 
 1044 users online  

AZ43 Hidden Valley Airport
Maricopa, Arizona, USA

GOING TO MARICOPA?


FAA INFORMATION EFFECTIVE 02 DECEMBER 2021

Location

FAA Identifier: AZ43
Lat/Long: 33-03-15.0000N 112-10-25.0000W
33-03.250000N 112-10.416667W
33.0541667,-112.1736111
(estimated)
Elevation: 1245 ft. / 379 m (estimated)
From city: 6 miles W of MARICOPA, AZ
Time zone: UTC -7 (year round; does not observe DST)
Zip code: 85139

Airport Operations

Airport use: Private use. Permission required prior to landing
Activation date: 11/2004
Control tower: no
ARTCC: ALBUQUERQUE CENTER
FSS: PRESCOTT FLIGHT SERVICE STATION
Attendance: CONTINUOUS
Wind indicator: yes
Segmented circle: no

Airport Communications

WX AWOS-3 at A39 (13 nm E): 126.900 (520-568-7704)

Nearby radio navigation aids

VOR radial/distance  VOR name  Freq  Var
TFDr295/16.7STANFIELD VORTAC114.8012E
PXRr192/24.9PHOENIX VORTAC115.6012E
GBNr063/25.9GILA BEND VORTAC116.6014E
IWAr227/30.2WILLIE VORTAC113.3013E

Airport Services

Runway Information

Runway 8/26

Dimensions: 2650 x 50 ft. / 808 x 15 m
Surface: asphalt, in good condition
RUNWAY 8  RUNWAY 26
Traffic pattern: leftright
Obstructions: gndnone

Airport Ownership and Management from official FAA records

Ownership: Privately-owned
Owner: MARC HOGUE
1753 E BROADWAY #101-513
TEMPE, AZ 85282
Phone 480-557-5867
Manager: MARC HOGUE
1753 E. BROADWAY # 101 - 513
TEMPE, AZ 85282
Phone (480) 557-5867

Airport Operational Statistics

Aircraft based on the field: 4
Single engine airplanes: 4
    

Additional Remarks

CONTACT FSS PRIOR TO TAKEOFF WHEN OPERATING INVOF MILITARY TRAINING ROUTES AND REMAIN BELOW 1000 FT AGL.
HIGH INTENSITY SKYDIVING OPS 13500 FT AND BLW.
STAY CLEAR 3 NM WHEN IN OPERATION CONTACT 122.9 FOR ADVISORIES.
FOR CD CTC PHOENIX APCH AT 602-306-2565.

Instrument Procedures

There are no published instrument procedures at AZ43.

Some nearby airports with instrument procedures:

P19 - Stellar Airpark (20 nm NE)
KCGZ - Casa Grande Municipal Airport (21 nm E)
KCHD - Chandler Municipal Airport (22 nm NE)
KPHX - Phoenix Sky Harbor International Airport (24 nm N)
KGYR - Phoenix Goodyear Airport (24 nm NW)
 
Loc | Ops | Rwys | IFR | FBO | Links
Com | Nav | Svcs | Stats | Notes
Area around AZ43 (Hidden Valley Airport)
 
Road maps at: MapQuest Bing Google
 
Aerial photo
WARNING: Photo may not be current or correct
Aerial photo of AZ43 (Hidden Valley Airport)
Photo by Mark Kruse
Photo taken 22-Apr-2017

Do you have a better or more recent aerial photo of Hidden Valley Airport that you would like to share? If so, please send us your photo.

 
Sectional chart

 
Airport distance calculator
Flying to Hidden Valley Airport? Find the distance to fly.

From to AZ43

Sunrise and sunset
Times for 04-Dec-2021
 Local
(UTC-7)
 Zulu
(UTC)
Morning civil twilight06:5013:50
Sunrise07:1714:17
Sunset17:2100:21
Evening civil twilight17:4800:48

Current date and time
Zulu (UTC)  04-Dec-2021 15:28:46
Local (UTC-7)  04-Dec-2021 08:28:46
 
METAR
KA39 
13nm E 
041515Z AUTO 13007KT 10SM CLR 12/01 A3013 RMK AO2
KCGZ 
21nm E 
040156Z AUTO 33003KT 10SM CLR 20/01 A3001 RMK AO2 SLP157 T02000006
KCHD 
22nm NE 
041447Z 00000KT 10SM FEW200 10/02 A3009
KPHX 
24nm N 
041451Z 10004KT 10SM FEW150 FEW200 12/03 A3006 RMK AO2 SLP172 T01220028 51013
KGYR 
24nm NW 
041447Z 07005KT 10SM FEW180 11/01 A3009
TAF
KPHX 
24nm N 
040520Z 0406/0512 VRB04KT P6SM SKC FM041100 11004KT P6SM FEW100 FEW250 FM042100 28004KT P6SM FEW100 FEW250 FM050300 VRB04KT P6SM SKC FM050800 11004KT P6SM SKC
KLUF 
29nm N 
032328Z 0323/0502 VRB06KT 9999 SKC QNH2995INS TX26/0323Z TN10/0413Z LAST NO AMDS AFT 0323 NEXT 0612
NOTAMs
Click for the latest NOTAMs
NOTAMs are issued by the DoD/FAA and will open in a separate window not controlled by AirNav.

 

 
 

Would you like to see your business listed on this page?

 If your business provides an interesting product or service to pilots, flight crews, aircraft, or users of the Hidden Valley Airport, you should consider listing it here.  To start the listing process, click on the button below
 
Add a business
 

Other Pages about Hidden Valley Airport

Update a link
 
Copyright © AirNav, LLC. All rights reserved. Privacy Policy  Contact